createdAt,value
2022-08-27T00:00:05.790Z,85.30
2022-08-27T00:05:06.083Z,85.46
2022-08-27T00:10:05.300Z,85.39
2022-08-27T00:15:02.540Z,85.30
2022-08-27T00:20:01.758Z,85.60
2022-08-27T00:25:01.056Z,85.64
2022-08-27T00:30:01.273Z,85.84
2022-08-27T00:34:59.499Z,86.34
2022-08-27T00:39:58.776Z,85.74
2022-08-27T00:45:00.010Z,84.59
2022-08-27T00:49:57.215Z,85.60
2022-08-27T00:54:56.428Z,86.54
2022-08-27T00:59:57.635Z,85.19
2022-08-27T01:04:55.839Z,84.99
2022-08-27T01:09:55.078Z,86.68
2022-08-27T01:14:53.283Z,85.74
2022-08-27T01:19:54.487Z,85.94
2022-08-27T01:24:51.737Z,85.74
2022-08-27T01:29:51.946Z,85.64
2022-08-27T01:34:51.135Z,86.14
2022-08-27T01:39:50.429Z,87.08
2022-08-27T01:44:47.621Z,87.59
2022-08-27T01:49:48.835Z,87.59
2022-08-27T01:54:48.165Z,86.24
2022-08-27T01:59:47.389Z,85.10
2022-08-27T02:04:44.609Z,85.24
2022-08-27T02:09:43.795Z,84.83
2022-08-27T02:14:43.018Z,86.88
2022-08-27T02:19:44.226Z,87.29
2022-08-27T02:24:42.409Z,86.38
2022-08-27T02:29:42.629Z,86.24
2022-08-27T02:34:41.827Z,84.69
2022-08-27T02:39:44.233Z,85.33
2022-08-27T02:44:40.287Z,84.99
2022-08-27T02:49:39.485Z,85.94
2022-08-27T02:54:38.725Z,85.70
2022-08-27T02:59:36.893Z,84.80
2022-08-27T03:04:38.043Z,85.10
2022-08-27T03:09:36.211Z,85.44
2022-08-27T03:14:34.444Z,85.84
2022-08-27T03:19:33.672Z,86.04
2022-08-27T03:24:31.934Z,85.03
2022-08-27T03:29:32.132Z,86.24
2022-08-27T03:34:32.515Z,86.34
2022-08-27T03:39:31.726Z,85.39
2022-08-27T03:44:29.929Z,86.24
2022-08-27T03:49:29.106Z,85.94
2022-08-27T03:54:29.289Z,84.69
2022-08-27T03:59:27.458Z,80.96
2022-08-27T04:04:26.645Z,83.59
2022-08-27T04:09:25.858Z,83.59
2022-08-27T04:14:27.241Z,85.44
2022-08-27T04:19:28.093Z,85.19
2022-08-27T04:24:24.421Z,84.80
2022-08-27T04:29:23.624Z,83.69
2022-08-27T04:34:23.883Z,83.93
2022-08-27T04:39:21.157Z,86.04
2022-08-27T04:44:20.390Z,84.49
2022-08-27T04:49:19.654Z,83.79
2022-08-27T04:54:22.512Z,81.60
2022-08-27T04:59:18.086Z,83.83
2022-08-27T05:04:19.271Z,75.57
2022-08-27T05:09:16.480Z,74.70
2022-08-27T05:14:15.633Z,78.42
2022-08-27T05:19:15.835Z,83.18
2022-08-27T05:24:14.024Z,83.65
2022-08-27T05:29:14.226Z,82.75
2022-08-27T05:34:15.259Z,84.94
2022-08-27T05:39:12.709Z,84.09
2022-08-27T05:44:39.740Z,84.29
2022-08-27T05:49:12.174Z,85.94
2022-08-27T05:54:11.361Z,84.29
2022-08-27T05:59:08.785Z,85.03
2022-08-27T06:04:08.839Z,85.03
2022-08-27T06:09:09.008Z,85.10
2022-08-27T06:14:07.170Z,84.19
2022-08-27T06:19:05.369Z,83.49
2022-08-27T06:24:05.552Z,84.19
2022-08-27T06:29:03.785Z,85.39
2022-08-27T06:34:07.269Z,85.60
2022-08-27T06:39:03.333Z,85.36
2022-08-27T06:44:02.589Z,84.61
2022-08-27T06:49:00.802Z,85.22
2022-08-27T06:54:00.023Z,85.25
2022-08-27T06:59:00.250Z,84.65
2022-08-27T07:03:59.431Z,83.07
2022-08-27T07:08:57.627Z,79.48
2022-08-27T07:13:57.921Z,77.84
2022-08-27T07:18:56.111Z,77.80
2022-08-27T07:23:55.313Z,79.24
2022-08-27T07:28:54.513Z,79.72
2022-08-27T07:33:54.720Z,77.74
2022-08-27T07:38:59.309Z,76.56
2022-08-27T07:43:52.181Z,79.36
2022-08-27T07:48:52.382Z,76.63
2022-08-27T07:53:52.592Z,73.46
2022-08-27T07:58:49.752Z,73.66
2022-08-27T08:03:48.954Z,70.39
2022-08-27T08:08:49.170Z,73.56
2022-08-27T08:13:47.407Z,70.39
2022-08-27T08:18:48.579Z,69.56
2022-08-27T08:23:46.755Z,70.69
2022-08-27T08:28:46.023Z,70.83
2022-08-27T08:33:45.215Z,71.52
2022-08-27T08:38:47.408Z,70.46
2022-08-27T08:43:43.642Z,71.09
2022-08-27T08:48:43.854Z,69.96
2022-08-27T08:53:42.054Z,68.13
2022-08-27T08:58:41.261Z,68.96
2022-08-27T09:03:40.494Z,69.20
2022-08-27T09:08:41.863Z,70.46
2022-08-27T09:13:37.033Z,69.66
2022-08-27T09:18:37.245Z,68.96
2022-08-27T09:23:36.541Z,68.33
2022-08-27T09:28:36.737Z,69.79
2022-08-27T09:33:44.531Z,68.56
2022-08-27T09:38:34.226Z,68.66
2022-08-27T09:43:33.445Z,68.23
2022-08-27T09:48:32.654Z,67.63
2022-08-27T09:53:31.867Z,67.13
2022-08-27T09:58:30.080Z,66.10
2022-08-27T10:03:33.391Z,64.84
2022-08-27T10:08:30.538Z,65.27
2022-08-27T10:13:28.727Z,65.57
2022-08-27T10:18:28.938Z,64.12
2022-08-27T10:23:28.142Z,61.57
2022-08-27T10:28:27.364Z,65.21
2022-08-27T10:33:25.533Z,63.26
2022-08-27T10:38:25.712Z,65.51
2022-08-27T10:43:24.894Z,63.69
2022-08-27T10:48:23.131Z,65.31
2022-08-27T10:53:22.338Z,63.82
2022-08-27T10:58:21.516Z,62.37
2022-08-27T11:03:22.787Z,62.37
2022-08-27T11:08:20.007Z,62.56
2022-08-27T11:13:19.213Z,63.62
2022-08-27T11:18:18.397Z,63.29
2022-08-27T11:23:17.613Z,64.22
2022-08-27T11:28:16.802Z,63.82
2022-08-27T11:33:16.000Z,62.66
2022-08-27T11:38:15.201Z,65.64
2022-08-27T11:43:15.471Z,62.66
2022-08-27T11:48:13.603Z,64.72
2022-08-27T11:53:12.946Z,63.62
2022-08-27T11:58:12.421Z,63.16
2022-08-27T12:03:12.605Z,61.01
2022-08-27T12:08:12.011Z,62.86
2022-08-27T12:13:10.192Z,63.36
2022-08-27T12:18:09.558Z,62.23
2022-08-27T12:23:08.768Z,63.69
2022-08-27T12:28:06.955Z,63.85
2022-08-27T12:33:09.105Z,61.61
2022-08-27T12:38:07.277Z,61.83
2022-08-27T12:43:05.434Z,64.18
2022-08-27T12:48:05.778Z,63.89
2022-08-27T12:53:04.099Z,63.62
2022-08-27T12:58:03.205Z,64.31
2022-08-27T13:03:02.536Z,63.59
2022-08-27T13:08:02.710Z,62.99
2022-08-27T13:13:01.851Z,62.46
2022-08-27T13:18:02.454Z,62.76
2022-08-27T13:22:59.392Z,61.67
2022-08-27T13:27:58.728Z,59.89
2022-08-27T13:32:59.067Z,60.12
2022-08-27T13:37:57.398Z,60.02
2022-08-27T13:42:57.546Z,60.74
2022-08-27T13:47:55.670Z,59.95
2022-08-27T13:52:55.039Z,60.44
2022-08-27T13:57:55.209Z,60.14
2022-08-27T14:02:56.498Z,58.75
2022-08-27T14:07:52.580Z,59.95
2022-08-27T14:12:50.718Z,59.55
2022-08-27T14:17:52.881Z,59.75
2022-08-27T14:22:50.083Z,59.03
2022-08-27T14:27:54.182Z,59.35
2022-08-27T14:32:48.471Z,58.53
2022-08-27T14:37:47.679Z,58.92
2022-08-27T14:42:47.835Z,59.05
2022-08-27T14:47:47.046Z,57.51
2022-08-27T14:52:45.250Z,57.68
2022-08-27T14:57:44.409Z,58.03
2022-08-27T15:02:44.538Z,59.32
2022-08-27T15:07:47.192Z,58.13
2022-08-27T15:12:42.152Z,59.05
2022-08-27T15:17:42.301Z,58.56
2022-08-27T15:22:44.167Z,58.28
2022-08-27T15:27:40.638Z,58.36
2022-08-27T15:32:39.773Z,59.65
2022-08-27T15:37:38.923Z,58.86
2022-08-27T15:42:37.298Z,58.75
2022-08-27T15:47:36.510Z,57.93
2022-08-27T15:52:40.901Z,58.10
2022-08-27T15:57:33.855Z,58.30
2022-08-27T16:02:34.222Z,60.87
2022-08-27T16:07:33.319Z,62.29
2022-08-27T16:12:33.641Z,63.72
2022-08-27T16:17:31.769Z,64.15
2022-08-27T16:22:32.097Z,65.17
2022-08-27T16:27:30.423Z,66.17
2022-08-27T16:32:29.747Z,65.01
2022-08-27T16:37:29.075Z,62.88
2022-08-27T16:42:29.394Z,62.59
2022-08-27T16:47:27.672Z,61.19
2022-08-27T16:52:26.968Z,61.49
2022-08-27T16:57:27.280Z,62.64
2022-08-27T17:02:30.273Z,62.15
2022-08-27T17:07:26.064Z,62.48
2022-08-27T17:12:24.972Z,63.20
2022-08-27T17:17:25.281Z,62.67
2022-08-27T17:22:22.598Z,62.83
2022-08-27T17:27:22.956Z,63.30
2022-08-27T17:32:22.094Z,62.81
2022-08-27T17:37:20.230Z,64.23
2022-08-27T17:42:20.553Z,63.80
2022-08-27T17:47:18.956Z,63.90
2022-08-27T17:52:19.096Z,64.53
2022-08-27T17:57:17.600Z,65.13
2022-08-27T18:02:17.782Z,66.43
2022-08-27T18:07:17.053Z,71.23
2022-08-27T18:12:16.356Z,71.56
2022-08-27T18:17:14.508Z,71.46
2022-08-27T18:22:13.824Z,69.56
2022-08-27T18:27:13.182Z,70.96
2022-08-27T18:32:13.203Z,69.89
2022-08-27T18:37:13.323Z,63.18
2022-08-27T18:42:10.620Z,66.50
2022-08-27T18:47:10.953Z,65.64
2022-08-27T18:52:09.100Z,69.32
2022-08-27T18:57:09.249Z,70.79
2022-08-27T19:02:08.537Z,71.49
2022-08-27T19:07:07.730Z,72.53
2022-08-27T19:12:05.881Z,69.86
2022-08-27T19:17:05.003Z,65.64
2022-08-27T19:22:04.190Z,70.69
2022-08-27T19:27:03.433Z,68.82
2022-08-27T19:32:02.816Z,66.73
2022-08-27T19:37:00.989Z,71.92
2022-08-27T19:42:03.145Z,73.06
2022-08-27T19:47:01.452Z,72.76
2022-08-27T19:51:59.665Z,72.86
2022-08-27T19:56:59.850Z,72.86
2022-08-27T20:01:59.213Z,73.66
2022-08-27T20:06:57.437Z,78.11
2022-08-27T20:11:56.548Z,77.51
2022-08-27T20:16:55.867Z,77.81
2022-08-27T20:21:57.322Z,76.84
2022-08-27T20:26:54.506Z,75.84
2022-08-27T20:31:54.757Z,76.14
2022-08-27T20:36:54.022Z,79.12
2022-08-27T20:41:52.186Z,78.78
2022-08-27T20:46:52.232Z,78.72
2022-08-27T20:52:01.837Z,78.38
2022-08-27T20:56:52.867Z,78.18
2022-08-27T21:01:49.136Z,80.12
2022-08-27T21:06:50.307Z,80.66
2022-08-27T21:11:49.454Z,80.12
2022-08-27T21:16:51.940Z,80.76
2022-08-27T21:21:47.117Z,80.66
2022-08-27T21:26:45.251Z,80.46
2022-08-27T21:31:45.621Z,81.10
2022-08-27T21:36:43.750Z,80.19
2022-08-27T21:41:43.861Z,82.95
2022-08-27T21:46:43.219Z,81.20
2022-08-27T21:51:42.535Z,79.16
2022-08-27T21:56:40.853Z,80.40
2022-08-27T22:01:42.245Z,81.34
2022-08-27T22:06:39.451Z,80.80
2022-08-27T22:11:39.576Z,79.05
2022-08-27T22:16:37.968Z,80.10
2022-08-27T22:21:37.106Z,78.75
2022-08-27T22:26:36.254Z,76.67
2022-08-27T22:31:35.468Z,79.29
2022-08-27T22:36:36.677Z,78.75
2022-08-27T22:41:34.791Z,78.45
2022-08-27T22:46:33.213Z,81.34
2022-08-27T22:51:33.351Z,80.63
2022-08-27T22:56:31.715Z,80.43
2022-08-27T23:01:35.827Z,79.99
2022-08-27T23:06:32.203Z,79.99
2022-08-27T23:11:30.304Z,80.24
2022-08-27T23:16:28.666Z,80.04
2022-08-27T23:21:28.829Z,81.18
2022-08-27T23:26:25.922Z,82.22
2022-08-27T23:31:27.276Z,81.48
2022-08-27T23:36:26.419Z,81.58
2022-08-27T23:41:24.832Z,84.07
2022-08-27T23:46:23.978Z,85.22
2022-08-27T23:51:24.166Z,83.47
2022-08-27T23:56:22.358Z,85.96
